Terminal Aerodrome Forecast
Issued by NWS

Home | Current Version | Previous Version | Text Only | Print | Product List | Glossary On
Versions: 1 2 3 4 5 6 7 8 9 10 11 12 13 14 15 16 17 18 19 20 21 22 23 24 25 26
000
FTUS41 KBUF 300500
TAFIAG
TAF
KIAG 300520Z 3006/3106 21015G25KT P6SM VCSH OVC050
      TEMPO 3006/3008 6SM -SHRASN OVC025
     FM300800 23018G28KT P6SM OVC025
     FM301300 26020G30KT P6SM OVC025
     FM301700 27021G33KT 6SM -SHRASN OVC035
     FM302100 27016G24KT P6SM BKN040
     FM310000 26010KT P6SM SCT040=

USA.gov is the U.S. government's official web portal to all federal, state and local government web resources and services.